Campo di Volo Villa Farsetti

IT-0226 · 威尼托, 意大利

罗盘
风向 的 风向 070° Campo di Volo Villa Farsetti 1/19
风: 3 kt, 1 beaufort

2 kt

2 kt
改变
0 ft 2.000 4.000 6.000 8.000 10.000
Cloud Cloud Cloud Cloud
SCT 3.000
Cloud Cloud Cloud Cloud Cloud Cloud
BKN 7.000
METAR LIPH 302050Z 07003KT 9999 -RA SCT030 BKN070 17/16 Q1005

METAR Campo di Volo Villa Farsetti - IT-0226

Campo di Volo Villa Farsetti是,意大利中的小机场。 该机场位于纬度45,49942和经度12,03068。 该机场有一条跑道: 1/19. 这个机场没有ICAO代码,我们使用IT-0226作为参考。 机场在Milano FIR中。

该航空气象观测是针对Treviso-Sant'Angelo Airport在2024年5月30日 22:50, 当地时间进行的。

机场观察

风向为070°,速度为3 kt。

可见度为10 km 或者更多。

有疏云,零星散落的云朵在3.000 ft的高度 和 碎云在7.000 ft的高度。 破损或更高的上限为7.000 ft。

当前天气为光 雨。 温度和风寒是17 °C。 露点为16 °C,相对湿度为94%。 海平面上的气压为1005 hPa (QNH)。

白天

今天,太阳从05:27升起,在20:51降落。 这适用于Campo di Volo Villa Farsetti,世界夏令时可能有所不同。 当地时间与世界标准时间之间的时差为+2 小时。 夏令时目前正在进行中。

公司介绍

我们没有关于这个机场的公司信息。

体会

到Vliegles.nl去找飞行课程,跳伞和其他飞行体验。 浏览页面,了解Campo di Volo Villa Farsetti附近所有可用的活动。 你也可以使用搜索功能来寻找你所在地附近的特定飞行课程、跳伞或其他飞行体验。

跑道

Id 标题 侧风 逆风 侧风 %
1/19 014°-194° 2 kt 2 kt 83 %

逆风成分最大的方向会被突出显示,并用于横风计算。 这并不一定意味着这个方向在使用。

乌云

3.000 ft SCT 疏云,零星散落的云朵
7.000 ft BKN 碎云

温度 & 天气

天气 光 雨
温度 17 °C
露点 16 °C
相对湿度 94%
Kp-index 1 (0-9)

白天

日出
05:26 (6:04)
中午
13:08
日落
20:51

小工具

你想在你的网站上有一个关于Campo di Volo Villa Farsetti的当前航空天气(METAR)的小部件吗?

显示HTML代码
报告变更